Time;durP1;ratioP1;P1;durP2;ratioP2;P2;SDS_P1;SDS_P2;PMS_P1;PMS_P2;Temp;Humidity;BMP_temperature;BMP_pressure;BME280_temperature;BME280_humidity;BME280_pressure;Samples;Min_cycle;Max_cycle;Signal;HPM_P1;HPM_P2
2021/10/05 00:00:46;;;;;;;2.83;2.60;;;14.60;95.00;;;;;;5106819;28;20222;-86
2021/10/05 00:03:12;;;;;;;3.10;2.80;;;14.60;95.30;;;;;;5106398;28;20622;-86
2021/10/05 00:05:38;;;;;;;4.17;3.10;;;14.50;95.30;;;;;;5098740;28;20723;-86
2021/10/05 00:08:04;;;;;;;3.37;2.90;;;14.50;95.40;;;;;;5104311;28;20182;-86
2021/10/05 00:10:29;;;;;;;4.60;2.70;;;14.40;96.00;;;;;;5108001;28;20229;-86
2021/10/05 00:12:55;;;;;;;6.37;3.03;;;14.50;96.20;;;;;;5111153;28;20248;-86
2021/10/05 00:15:21;;;;;;;4.03;2.83;;;14.40;95.90;;;;;;5108481;28;20192;-87
2021/10/05 00:17:47;;;;;;;3.53;3.00;;;14.40;96.10;;;;;;5099377;28;20269;-87
2021/10/05 00:20:14;;;;;;;3.13;2.63;;;14.40;95.90;;;;;;5112562;28;20197;-87
2021/10/05 00:22:40;;;;;;;3.37;3.03;;;14.50;96.00;;;;;;5111961;28;20250;-87
2021/10/05 00:25:06;;;;;;;2.90;2.70;;;14.50;95.80;;;;;;5090890;28;20218;-87
2021/10/05 00:27:32;;;;;;;3.10;2.90;;;14.50;95.60;;;;;;5075640;28;20201;-87
2021/10/05 00:29:58;;;;;;;3.23;2.93;;;14.40;95.70;;;;;;5105191;28;20190;-87
2021/10/05 00:32:23;;;;;;;3.27;2.90;;;14.50;95.70;;;;;;5085865;28;20314;-87
2021/10/05 00:34:50;;;;;;;4.03;2.80;;;14.40;95.10;;;;;;5095004;28;20183;-87
2021/10/05 00:37:16;;;;;;;3.70;3.10;;;14.40;95.80;;;;;;5106662;27;20205;-87
2021/10/05 00:39:42;;;;;;;3.60;3.30;;;14.30;95.80;;;;;;5071748;28;20224;-87
2021/10/05 00:42:08;;;;;;;3.10;2.90;;;14.30;96.00;;;;;;5083246;28;20207;-87
2021/10/05 00:44:36;;;;;;;3.73;3.43;;;14.30;96.50;;;;;;5096909;28;20535;-87
2021/10/05 00:47:07;;;;;;;3.80;3.50;;;14.30;96.00;;;;;;5057028;28;20253;-87
2021/10/05 00:49:34;;;;;;;6.10;3.80;;;14.30;96.00;;;;;;5052749;28;20190;-86
2021/10/05 00:52:01;;;;;;;4.23;3.83;;;14.30;95.80;;;;;;5106630;28;20202;-86
2021/10/05 00:54:30;;;;;;;4.57;4.07;;;14.30;96.10;;;;;;5079316;28;20797;-86
2021/10/05 00:56:57;;;;;;;4.63;4.23;;;14.30;96.20;;;;;;5080522;28;20194;-87
2021/10/05 00:59:25;;;;;;;4.50;4.10;;;14.20;96.50;;;;;;5095047;28;20209;-87
2021/10/05 01:01:51;;;;;;;4.43;4.13;;;14.20;97.00;;;;;;5080326;28;20236;-86
2021/10/05 01:04:20;;;;;;;4.53;4.13;;;14.20;97.00;;;;;;5094569;28;20202;-86
2021/10/05 01:07:07;;;;;;;4.87;4.47;;;14.20;96.70;;;;;;5064328;27;20582;-87
2021/10/05 01:09:37;;;;;;;5.30;4.80;;;14.30;96.60;;;;;;5079370;28;20241;-87
2021/10/05 01:12:14;;;;;;;5.07;4.70;;;14.30;96.90;;;;;;5028018;23;20234;-87
2021/10/05 01:14:44;;;;;;;5.60;4.80;;;14.30;96.80;;;;;;4991513;28;20189;-87
2021/10/05 01:17:16;;;;;;;5.90;5.30;;;14.40;96.40;;;;;;4994010;28;20192;-87
2021/10/05 01:19:54;;;;;;;8.47;5.17;;;14.40;96.50;;;;;;4998065;28;20220;-87
2021/10/05 01:22:26;;;;;;;5.40;5.00;;;14.40;96.20;;;;;;4993523;28;20245;-87
2021/10/05 01:28:31;;;;;;;6.10;5.50;;;14.40;95.80;;;;;;4981587;28;20667;-87
2021/10/05 01:31:08;;;;;;;5.80;5.30;;;14.30;96.20;;;;;;4987204;28;20238;-87
2021/10/05 01:33:36;;;;;;;5.80;5.37;;;14.30;96.40;;;;;;4989294;28;20247;-87
2021/10/05 01:36:11;;;;;;;6.53;5.93;;;14.30;97.10;;;;;;4986020;28;20263;-87
2021/10/05 01:38:37;;;;;;;6.07;5.63;;;14.20;96.60;;;;;;4989443;28;20221;-86
2021/10/05 01:41:07;;;;;;;6.10;5.60;;;14.10;97.10;;;;;;4978053;28;20560;-87
2021/10/05 01:43:53;;;;;;;6.70;5.73;;;14.20;97.20;;;;;;4977882;28;20280;-87
2021/10/05 01:46:22;;;;;;;6.10;5.60;;;14.10;96.80;;;;;;5006811;28;20285;-87
2021/10/05 01:48:48;;;;;;;7.00;6.30;;;14.10;97.30;;;;;;4986795;28;20195;-86
2021/10/05 01:51:23;;;;;;;5.90;5.40;;;14.00;97.70;;;;;;4988260;28;20320;-86
2021/10/05 01:53:54;;;;;;;5.77;5.27;;;14.00;98.00;;;;;;4974516;28;20196;-86
2021/10/05 01:56:20;;;;;;;6.23;5.73;;;14.00;98.00;;;;;;4987174;28;20214;-86
2021/10/05 01:58:47;;;;;;;6.10;5.60;;;14.10;97.80;;;;;;4984057;28;20238;-86
2021/10/05 02:01:13;;;;;;;5.50;5.10;;;14.10;97.50;;;;;;4971166;28;20290;-86
2021/10/05 02:03:41;;;;;;;6.70;6.20;;;14.20;97.50;;;;;;4965705;28;20292;-86
2021/10/05 02:06:10;;;;;;;6.53;5.93;;;14.20;97.10;;;;;;4980635;28;20741;-86
2021/10/05 02:08:35;;;;;;;7.00;6.30;;;14.30;97.10;;;;;;4989385;28;20190;-88
2021/10/05 02:11:01;;;;;;;5.77;5.37;;;14.30;96.70;;;;;;4987223;28;20225;-86
2021/10/05 02:13:27;;;;;;;5.37;4.77;;;14.30;96.50;;;;;;4967196;28;20196;-86
2021/10/05 02:15:56;;;;;;;5.50;5.10;;;14.30;96.40;;;;;;4980158;28;20202;-86
2021/10/05 02:18:22;;;;;;;5.20;4.80;;;14.30;97.00;;;;;;4987960;28;21005;-86
2021/10/05 02:20:47;;;;;;;6.37;5.77;;;14.30;96.50;;;;;;4988184;28;20211;-86
2021/10/05 02:23:13;;;;;;;6.40;5.90;;;14.30;96.10;;;;;;4985611;28;20690;-86
2021/10/05 02:25:39;;;;;;;6.43;5.87;;;14.30;95.90;;;;;;4974234;28;20692;-86
2021/10/05 02:28:04;;;;;;;5.67;5.13;;;14.20;96.20;;;;;;4986525;28;20217;-86
2021/10/05 02:30:31;;;;;;;5.30;4.80;;;14.10;96.70;;;;;;4987991;28;20214;-86
2021/10/05 02:32:56;;;;;;;5.57;5.10;;;14.20;97.00;;;;;;4985391;28;20188;-86
2021/10/05 02:35:22;;;;;;;5.80;5.30;;;14.30;96.50;;;;;;4986254;28;20325;-86
2021/10/05 02:37:48;;;;;;;6.47;5.93;;;14.30;96.20;;;;;;4980804;28;20192;-86
2021/10/05 02:40:14;;;;;;;5.30;4.80;;;14.30;96.30;;;;;;4986840;28;20721;-86
2021/10/05 02:42:40;;;;;;;7.53;6.50;;;14.30;96.30;;;;;;4988433;28;20194;-86
2021/10/05 02:45:07;;;;;;;6.33;5.87;;;14.30;95.60;;;;;;4988054;28;20194;-86
2021/10/05 02:47:33;;;;;;;5.63;5.17;;;14.30;96.00;;;;;;4987065;28;20281;-87
2021/10/05 02:49:59;;;;;;;5.70;5.20;;;14.40;95.80;;;;;;4989225;28;20655;-86
2021/10/05 02:52:24;;;;;;;5.77;5.27;;;14.40;95.30;;;;;;4987057;28;20214;-87
2021/10/05 02:54:50;;;;;;;6.87;5.83;;;14.30;95.40;;;;;;4984781;28;20515;-86
2021/10/05 02:57:18;;;;;;;7.03;6.53;;;14.40;95.50;;;;;;4988548;28;20191;-86
2021/10/05 02:59:46;;;;;;;6.63;6.03;;;14.40;95.10;;;;;;4988028;28;20752;-86
2021/10/05 03:02:11;;;;;;;7.20;6.53;;;14.40;95.70;;;;;;4985948;28;20296;-86
2021/10/05 03:04:38;;;;;;;8.03;7.13;;;14.40;95.80;;;;;;4987077;28;20680;-87
2021/10/05 03:07:05;;;;;;;7.10;6.40;;;14.30;96.00;;;;;;4988963;28;20272;-86
2021/10/05 03:09:31;;;;;;;7.43;6.83;;;14.20;96.30;;;;;;4999641;28;20182;-86
2021/10/05 03:11:57;;;;;;;7.17;6.57;;;14.30;96.10;;;;;;5010531;28;20228;-86
2021/10/05 03:14:23;;;;;;;6.80;6.30;;;14.20;96.20;;;;;;5012164;28;20195;-86
2021/10/05 03:16:48;;;;;;;7.37;6.77;;;14.10;96.90;;;;;;5010084;28;20198;-86
2021/10/05 03:19:14;;;;;;;6.77;6.27;;;14.10;96.80;;;;;;5010218;28;20214;-86
2021/10/05 03:21:40;;;;;;;7.57;5.93;;;14.10;97.10;;;;;;4994098;28;20211;-86
2021/10/05 03:24:07;;;;;;;6.70;6.20;;;14.10;96.80;;;;;;4989767;28;20198;-86
2021/10/05 03:26:33;;;;;;;6.77;6.17;;;14.10;96.90;;;;;;4994342;28;20214;-86
2021/10/05 03:28:59;;;;;;;7.53;6.93;;;14.20;97.30;;;;;;4978893;28;20223;-87
2021/10/05 03:31:25;;;;;;;7.07;6.47;;;14.10;96.60;;;;;;4984407;28;20242;-87
2021/10/05 03:33:51;;;;;;;8.07;7.27;;;14.10;96.80;;;;;;4990840;28;20194;-86
2021/10/05 03:36:17;;;;;;;7.20;6.60;;;14.10;96.80;;;;;;4990718;28;20201;-86
2021/10/05 03:38:43;;;;;;;7.57;6.97;;;14.10;96.90;;;;;;4990180;28;20221;-86
2021/10/05 03:41:10;;;;;;;8.97;6.97;;;14.10;96.50;;;;;;4990901;28;20224;-86
2021/10/05 03:43:37;;;;;;;6.67;6.17;;;14.00;97.20;;;;;;4993154;28;20205;-86
2021/10/05 03:46:04;;;;;;;6.67;6.17;;;14.00;97.50;;;;;;4976838;28;20289;-86
2021/10/05 03:48:30;;;;;;;7.33;6.73;;;14.10;97.40;;;;;;5007698;28;20203;-86
2021/10/05 03:50:56;;;;;;;8.07;7.00;;;14.20;97.30;;;;;;5005070;28;20218;-86
2021/10/05 03:53:21;;;;;;;7.77;7.17;;;14.20;96.70;;;;;;5005847;28;20199;-86
2021/10/05 03:55:53;;;;;;;7.97;7.27;;;14.20;96.20;;;;;;5008035;28;20207;-87
2021/10/05 03:58:20;;;;;;;7.63;7.03;;;14.30;96.20;;;;;;4996094;28;20220;-86
2021/10/05 04:00:47;;;;;;;7.30;6.77;;;14.30;96.10;;;;;;4979936;28;20216;-86
2021/10/05 04:03:13;;;;;;;7.93;7.23;;;14.20;96.30;;;;;;4982090;28;20199;-86
2021/10/05 04:05:39;;;;;;;7.50;6.90;;;14.20;96.40;;;;;;4990613;28;20194;-86
2021/10/05 04:08:06;;;;;;;6.93;6.33;;;14.20;96.40;;;;;;4996007;28;20195;-86
2021/10/05 04:10:31;;;;;;;9.10;8.30;;;14.20;96.20;;;;;;4985505;28;20210;-87
2021/10/05 04:12:57;;;;;;;7.80;7.20;;;14.10;96.40;;;;;;4993942;28;20202;-88
2021/10/05 04:15:23;;;;;;;7.67;6.97;;;14.10;96.70;;;;;;5012289;28;20194;-88
2021/10/05 04:17:49;;;;;;;8.07;7.37;;;14.00;97.20;;;;;;4979343;28;20200;-88
2021/10/05 04:20:15;;;;;;;9.07;8.37;;;14.10;96.90;;;;;;4998376;28;20290;-86
2021/10/05 04:22:46;;;;;;;7.37;6.77;;;14.10;97.10;;;;;;4996468;28;20196;-87
2021/10/05 04:25:12;;;;;;;6.93;6.43;;;14.20;96.70;;;;;;4993774;28;20197;-87
2021/10/05 04:27:39;;;;;;;7.97;7.27;;;14.20;96.40;;;;;;4998549;28;20197;-87
2021/10/05 04:30:08;;;;;;;12.47;11.67;;;14.30;96.20;;;;;;4994816;28;20221;-88
2021/10/05 04:32:34;;;;;;;7.27;6.67;;;14.20;96.00;;;;;;4987102;28;20218;-87
2021/10/05 04:35:00;;;;;;;8.17;7.57;;;14.20;96.10;;;;;;4996072;28;20204;-87
2021/10/05 04:37:25;;;;;;;7.53;6.93;;;14.30;96.00;;;;;;5010160;28;20265;-87
2021/10/05 04:39:51;;;;;;;7.20;6.60;;;14.30;96.70;;;;;;5008961;28;20240;-86
2021/10/05 04:42:18;;;;;;;7.90;7.27;;;14.20;95.80;;;;;;4979662;28;20252;-87
2021/10/05 04:44:43;;;;;;;9.53;8.63;;;14.10;96.50;;;;;;4997329;28;20270;-87
2021/10/05 04:47:09;;;;;;;9.77;8.97;;;14.10;96.50;;;;;;4996274;28;20198;-87
2021/10/05 04:49:35;;;;;;;7.47;6.87;;;14.00;97.00;;;;;;4995275;28;20198;-86
2021/10/05 04:52:01;;;;;;;7.63;6.97;;;14.10;97.30;;;;;;4959551;28;21052;-87
2021/10/05 04:54:26;;;;;;;8.37;7.67;;;14.20;96.70;;;;;;4990200;28;20278;-88
2021/10/05 04:56:52;;;;;;;7.57;6.87;;;14.20;96.50;;;;;;4988094;28;20196;-87
2021/10/05 04:59:19;;;;;;;8.40;7.33;;;14.40;95.60;;;;;;4984479;28;20709;-88
2021/10/05 05:01:45;;;;;;;8.50;7.70;;;14.40;95.50;;;;;;4983884;28;20208;-88
2021/10/05 05:04:11;;;;;;;8.60;7.80;;;14.40;95.10;;;;;;4982460;28;20541;-87
2021/10/05 05:06:38;;;;;;;9.20;8.27;;;14.40;94.90;;;;;;5004248;28;20198;-88
2021/10/05 05:09:05;;;;;;;7.17;6.57;;;14.40;94.90;;;;;;4996215;28;20216;-88
2021/10/05 05:11:30;;;;;;;7.77;7.07;;;14.30;95.60;;;;;;4994720;28;20278;-87
2021/10/05 05:13:59;;;;;;;7.67;7.07;;;14.30;95.70;;;;;;4982805;28;20211;-88
2021/10/05 05:16:25;;;;;;;7.70;7.00;;;14.30;95.80;;;;;;4999403;28;20192;-88
2021/10/05 05:18:51;;;;;;;8.00;7.20;;;14.40;95.50;;;;;;4996620;28;20300;-88
2021/10/05 05:21:17;;;;;;;7.17;6.57;;;14.40;95.50;;;;;;4994273;28;20217;-88
2021/10/05 05:23:42;;;;;;;9.70;8.63;;;14.40;95.10;;;;;;4988814;28;20202;-89
2021/10/05 05:26:08;;;;;;;8.20;7.50;;;14.50;95.20;;;;;;4991431;28;20221;-89
2021/10/05 05:28:34;;;;;;;7.70;7.00;;;14.50;95.10;;;;;;4976408;28;20209;-88
2021/10/05 05:31:00;;;;;;;7.17;6.60;;;14.40;95.50;;;;;;4974758;28;20552;-88
2021/10/05 05:33:25;;;;;;;7.90;7.23;;;14.20;96.20;;;;;;4985092;28;20219;-88
2021/10/05 05:35:51;;;;;;;7.87;7.17;;;14.20;96.80;;;;;;4989955;28;20286;-88
2021/10/05 05:38:21;;;;;;;8.23;7.63;;;14.10;96.90;;;;;;4984588;28;20436;-88
2021/10/05 05:40:47;;;;;;;8.30;7.63;;;14.40;96.60;;;;;;4971436;28;20209;-87
2021/10/05 05:43:15;;;;;;;8.27;7.57;;;14.20;96.70;;;;;;4994681;28;20187;-88
2021/10/05 05:45:45;;;;;;;8.33;7.63;;;14.10;97.20;;;;;;4990542;28;20273;-88
2021/10/05 05:48:17;;;;;;;8.27;7.60;;;14.00;97.90;;;;;;4980540;28;20210;-88
2021/10/05 05:50:46;;;;;;;8.43;7.63;;;13.80;99.10;;;;;;4962543;28;20217;-87
2021/10/05 05:53:15;;;;;;;7.90;7.20;;;13.60;99.90;;;;;;4974971;28;20200;-87
2021/10/05 05:55:44;;;;;;;6.73;6.23;;;13.60;99.90;;;;;;4983659;28;20206;-89
2021/10/05 05:58:16;;;;;;;8.33;7.57;;;13.60;99.90;;;;;;4980780;28;20199;-88
2021/10/05 06:00:46;;;;;;;8.33;7.63;;;13.70;99.90;;;;;;4970122;28;20213;-88
2021/10/05 06:03:14;;;;;;;7.70;7.00;;;13.80;99.70;;;;;;4982968;28;20204;-88
2021/10/05 06:05:41;;;;;;;6.73;6.17;;;13.90;99.00;;;;;;4993009;28;20201;-88
2021/10/05 06:08:08;;;;;;;8.13;7.40;;;13.90;98.70;;;;;;4986530;28;20201;-88
2021/10/05 06:10:36;;;;;;;7.60;6.90;;;14.00;98.60;;;;;;4987512;28;20221;-88
2021/10/05 06:13:03;;;;;;;8.67;7.87;;;14.10;98.60;;;;;;4985628;28;21554;-88
2021/10/05 06:15:29;;;;;;;7.93;7.33;;;14.10;97.70;;;;;;4983830;28;20242;-88
2021/10/05 06:17:56;;;;;;;8.27;7.53;;;14.10;98.00;;;;;;5002875;28;20197;-88
2021/10/05 06:20:25;;;;;;;7.80;7.13;;;14.10;97.60;;;;;;4974420;28;20212;-88
2021/10/05 06:22:52;;;;;;;8.90;8.20;;;14.10;97.50;;;;;;4985096;28;20193;-88
2021/10/05 06:25:22;;;;;;;9.43;8.20;;;14.10;97.60;;;;;;4982994;28;20194;-88
2021/10/05 06:27:48;;;;;;;8.80;8.00;;;14.10;98.20;;;;;;4983555;28;20192;-88
2021/10/05 06:30:16;;;;;;;9.17;8.37;;;14.10;98.60;;;;;;4986631;28;20200;-88
2021/10/05 06:32:44;;;;;;;8.93;8.13;;;14.00;98.20;;;;;;4985103;28;20748;-89
2021/10/05 06:35:11;;;;;;;9.00;8.20;;;14.10;98.20;;;;;;4982652;28;20208;-88
2021/10/05 06:37:38;;;;;;;8.33;7.67;;;14.10;97.80;;;;;;4977578;28;20208;-89
2021/10/05 06:40:04;;;;;;;7.50;6.90;;;14.20;97.90;;;;;;4979147;28;20237;-89
2021/10/05 06:42:35;;;;;;;8.10;7.40;;;14.20;97.60;;;;;;4983367;28;20381;-88
2021/10/05 06:45:05;;;;;;;9.03;8.07;;;14.40;96.70;;;;;;4982268;28;20257;-88
2021/10/05 06:47:31;;;;;;;9.50;8.60;;;14.30;97.50;;;;;;4980145;28;20191;-88
2021/10/05 06:49:58;;;;;;;10.00;9.10;;;14.40;96.50;;;;;;4976076;28;20276;-88
2021/10/05 06:52:24;;;;;;;10.60;9.67;;;14.30;97.20;;;;;;4985520;28;20298;-89
2021/10/05 06:54:51;;;;;;;10.30;9.40;;;14.00;99.00;;;;;;4976609;28;20218;-89
2021/10/05 06:57:16;;;;;;;10.50;9.60;;;14.10;98.90;;;;;;4983379;28;20187;-88
2021/10/05 06:59:42;;;;;;;11.20;10.10;;;14.00;98.30;;;;;;4987188;28;20216;-88
2021/10/05 07:02:08;;;;;;;10.47;9.47;;;13.90;98.90;;;;;;4987192;28;20208;-88
2021/10/05 07:04:33;;;;;;;9.97;9.10;;;13.90;99.50;;;;;;5004099;28;20195;-88
2021/10/05 07:06:59;;;;;;;10.20;9.40;;;13.90;99.40;;;;;;5002277;28;20221;-88
2021/10/05 07:09:25;;;;;;;10.53;9.63;;;13.90;99.90;;;;;;4994938;28;20196;-88
2021/10/05 07:11:51;;;;;;;9.30;8.50;;;13.80;99.90;;;;;;4982494;28;20243;-88
2021/10/05 07:14:16;;;;;;;8.57;7.77;;;13.90;99.60;;;;;;4981000;28;20833;-89
2021/10/05 07:16:42;;;;;;;8.90;8.00;;;13.90;99.50;;;;;;4987866;28;20202;-89
2021/10/05 07:19:08;;;;;;;8.70;7.90;;;14.00;99.50;;;;;;4991358;28;20223;-89
2021/10/05 07:21:34;;;;;;;9.30;8.50;;;13.80;99.90;;;;;;4987643;28;20245;-89
2021/10/05 07:24:03;;;;;;;8.07;7.47;;;13.80;99.90;;;;;;4986445;28;20202;-90
2021/10/05 07:26:33;;;;;;;9.50;8.60;;;13.80;99.90;;;;;;4993145;28;20207;-90
2021/10/05 07:28:59;;;;;;;9.63;8.73;;;13.80;99.90;;;;;;5011689;28;20224;-90
2021/10/05 07:31:25;;;;;;;9.77;8.93;;;13.70;99.90;;;;;;4993003;28;20221;-88
2021/10/05 07:33:51;;;;;;;10.70;9.80;;;13.70;99.90;;;;;;5004522;28;20214;-89
2021/10/05 07:36:18;;;;;;;10.47;9.63;;;13.50;99.90;;;;;;4981429;28;20226;-88
2021/10/05 07:38:46;;;;;;;11.23;10.13;;;13.60;99.90;;;;;;4957872;28;20230;-89
2021/10/05 07:41:14;;;;;;;11.40;10.40;;;13.70;99.90;;;;;;4970060;28;20214;-89
2021/10/05 07:43:43;;;;;;;11.73;10.60;;;13.60;99.90;;;;;;4966716;28;20225;-89
2021/10/05 07:46:13;;;;;;;11.50;10.40;;;13.60;99.90;;;;;;4956129;28;20195;-89
2021/10/05 07:48:43;;;;;;;11.87;10.63;;;13.60;99.90;;;;;;4983214;28;20211;-89
2021/10/05 07:51:21;;;;;;;12.57;11.47;;;13.60;99.90;;;;;;4998597;23;20238;-89
2021/10/05 08:00:42;;;;;;;11.07;10.07;;;13.80;99.90;;;;;;5016110;28;20221;-89
2021/10/05 08:03:19;;;;;;;12.00;10.80;;;13.80;99.90;;;;;;5014440;28;20206;-89
2021/10/05 08:06:42;;;;;;;11.33;10.20;;;13.80;99.90;;;;;;5011011;28;20578;-89
2021/10/05 08:09:07;;;;;;;10.70;9.60;;;13.90;99.90;;;;;;5008941;28;20186;-89
2021/10/05 08:11:35;;;;;;;10.70;9.73;;;13.90;99.90;;;;;;5036246;28;20236;-89
2021/10/05 08:14:11;;;;;;;11.87;10.17;;;13.80;99.90;;;;;;5041280;28;20207;-89
2021/10/05 08:16:37;;;;;;;10.30;9.47;;;13.80;99.90;;;;;;5039435;28;20186;-90
2021/10/05 08:19:05;;;;;;;9.37;8.47;;;13.80;99.90;;;;;;5046237;28;20208;-90
2021/10/05 08:21:38;;;;;;;8.73;7.93;;;13.70;99.90;;;;;;5034134;28;20205;-89
2021/10/05 08:24:04;;;;;;;9.73;8.83;;;13.70;99.90;;;;;;5031093;28;20201;-90
2021/10/05 08:26:30;;;;;;;8.80;8.00;;;13.80;99.90;;;;;;5048649;28;20190;-89
2021/10/05 08:28:56;;;;;;;9.67;8.77;;;13.70;99.90;;;;;;5041652;28;20283;-89
2021/10/05 08:31:22;;;;;;;9.63;8.83;;;13.70;99.90;;;;;;5039424;28;20255;-88
2021/10/05 08:33:50;;;;;;;9.13;8.43;;;13.70;99.90;;;;;;5038776;28;20725;-89
2021/10/05 08:36:18;;;;;;;8.53;7.67;;;13.60;99.90;;;;;;5045731;28;20197;-89
2021/10/05 08:38:44;;;;;;;6.53;6.03;;;13.70;99.90;;;;;;5039575;28;20224;-89
2021/10/05 08:41:11;;;;;;;7.77;6.97;;;13.80;99.90;;;;;;5038636;28;20677;-88
2021/10/05 08:43:45;;;;;;;6.90;6.30;;;13.80;99.90;;;;;;5047362;28;20188;-89
2021/10/05 08:46:11;;;;;;;5.83;5.33;;;14.10;99.90;;;;;;5036458;28;20200;-89
2021/10/05 08:48:43;;;;;;;5.93;5.43;;;14.20;99.40;;;;;;5037361;28;20230;-89
2021/10/05 08:51:09;;;;;;;6.63;6.10;;;14.40;98.90;;;;;;5044857;28;20226;-89
2021/10/05 08:53:39;;;;;;;7.03;6.43;;;14.30;99.30;;;;;;5063510;28;20264;-89
2021/10/05 08:56:08;;;;;;;5.87;5.37;;;14.40;99.80;;;;;;5046608;28;20740;-89
2021/10/05 08:58:35;;;;;;;6.67;6.07;;;14.40;99.10;;;;;;5046717;28;20218;-89
2021/10/05 09:01:12;;;;;;;6.67;6.17;;;14.30;99.90;;;;;;5033835;28;20355;-88
2021/10/05 09:03:46;;;;;;;6.70;6.20;;;14.40;98.80;;;;;;5025280;28;20192;-89
2021/10/05 09:06:13;;;;;;;6.40;5.90;;;14.40;97.50;;;;;;5030956;28;20217;-90
2021/10/05 09:08:41;;;;;;;6.57;5.80;;;14.50;97.70;;;;;;5028649;28;20204;-87
2021/10/05 09:11:15;;;;;;;6.47;5.97;;;14.40;98.10;;;;;;5064101;28;20212;-87
2021/10/05 09:13:44;;;;;;;7.23;6.63;;;14.50;98.00;;;;;;5036546;28;20197;-88
2021/10/05 09:16:27;;;;;;;6.23;5.73;;;14.50;98.80;;;;;;5064611;28;20753;-87
2021/10/05 09:19:08;;;;;;;5.10;4.70;;;14.80;96.20;;;;;;5064568;28;20195;-87
2021/10/05 09:21:41;;;;;;;5.83;5.33;;;14.80;94.60;;;;;;5063066;28;20573;-89
2021/10/05 09:24:11;;;;;;;5.73;5.23;;;14.80;94.80;;;;;;5052394;28;20191;-87
2021/10/05 09:26:38;;;;;;;5.40;4.90;;;14.60;95.10;;;;;;5064347;28;20696;-87
2021/10/05 09:29:11;;;;;;;5.47;4.97;;;14.40;96.30;;;;;;5067298;28;20189;-88
2021/10/05 09:31:55;;;;;;;5.50;5.00;;;14.50;97.20;;;;;;5050754;28;20322;-88
2021/10/05 09:34:45;;;;;;;6.40;5.87;;;14.60;95.30;;;;;;5049570;28;20251;-87
2021/10/05 09:37:39;;;;;;;5.90;5.40;;;14.60;96.80;;;;;;5043874;28;20202;-87
2021/10/05 09:40:12;;;;;;;5.80;5.30;;;14.70;94.10;;;;;;5068895;28;20637;-87
2021/10/05 09:42:40;;;;;;;5.57;5.10;;;14.80;94.40;;;;;;5043761;28;20184;-88
2021/10/05 09:45:10;;;;;;;5.50;5.10;;;15.10;92.10;;;;;;5038379;28;20199;-88
2021/10/05 09:47:40;;;;;;;4.70;4.30;;;15.10;93.00;;;;;;5057639;28;20194;-89
2021/10/05 09:50:31;;;;;;;4.50;4.10;;;15.20;90.60;;;;;;5044236;28;20190;-88
2021/10/05 09:53:01;;;;;;;4.40;4.10;;;15.30;89.10;;;;;;5054072;28;20214;-88
2021/10/05 09:55:34;;;;;;;5.40;4.33;;;15.30;91.50;;;;;;5054058;28;20247;-88
2021/10/05 09:57:59;;;;;;;4.93;4.47;;;15.10;91.70;;;;;;5057879;28;20735;-88
2021/10/05 10:00:28;;;;;;;5.20;4.53;;;15.20;89.60;;;;;;5055159;28;20248;-88
2021/10/05 10:02:54;;;;;;;4.70;4.30;;;15.20;91.50;;;;;;5046139;28;20227;-89
2021/10/05 10:05:23;;;;;;;4.70;4.30;;;15.10;90.70;;;;;;5054528;28;20668;-88
2021/10/05 10:07:52;;;;;;;4.50;4.07;;;15.20;90.80;;;;;;5058436;28;20183;-88
2021/10/05 10:10:21;;;;;;;4.97;4.47;;;15.20;91.80;;;;;;5050604;28;20222;-89
2021/10/05 10:12:52;;;;;;;4.50;4.10;;;15.20;91.70;;;;;;5063165;28;20195;-90
2021/10/05 10:15:29;;;;;;;3.93;3.63;;;15.30;90.40;;;;;;5047931;28;20209;-89
2021/10/05 10:18:05;;;;;;;4.10;3.80;;;15.40;90.00;;;;;;5046990;28;20677;-89
2021/10/05 10:20:31;;;;;;;4.27;2.80;;;15.50;92.40;;;;;;5058551;28;20257;-89
2021/10/05 10:23:00;;;;;;;3.17;2.87;;;15.80;86.10;;;;;;5063443;28;20204;-90
2021/10/05 10:25:29;;;;;;;2.93;2.73;;;16.30;85.60;;;;;;5068628;28;20207;-90
2021/10/05 10:27:57;;;;;;;2.67;2.47;;;16.20;85.00;;;;;;5068833;28;20188;-90
2021/10/05 10:30:28;;;;;;;2.60;2.40;;;16.20;85.80;;;;;;5062966;28;20198;-89
2021/10/05 10:33:03;;;;;;;4.03;2.70;;;16.20;86.50;;;;;;5072342;28;20213;-90
2021/10/05 10:35:29;;;;;;;3.23;2.23;;;16.00;86.10;;;;;;5075274;28;20211;-89
2021/10/05 10:37:56;;;;;;;2.70;2.50;;;15.90;86.10;;;;;;5071327;28;20262;-88
2021/10/05 10:40:36;;;;;;;2.50;2.20;;;15.70;86.90;;;;;;5036635;28;20229;-88
2021/10/05 10:43:16;;;;;;;2.40;2.17;;;15.90;88.90;;;;;;5052745;28;20185;-88
2021/10/05 10:46:02;;;;;;;3.20;2.40;;;16.20;85.90;;;;;;5056580;28;20180;-89
2021/10/05 10:48:36;;;;;;;2.73;2.40;;;16.40;85.50;;;;;;5040888;28;20293;-90
2021/10/05 10:51:16;;;;;;;2.50;2.30;;;17.00;84.80;;;;;;5040964;28;20215;-88
2021/10/05 10:53:44;;;;;;;2.20;2.10;;;17.60;81.10;;;;;;5062182;28;20214;-89
2021/10/05 10:56:49;;;;;;;2.23;2.03;;;17.60;81.30;;;;;;5067104;28;20180;-89
2021/10/05 10:59:19;;;;;;;2.23;2.03;;;17.80;80.40;;;;;;5003830;28;20201;-89
2021/10/05 11:01:49;;;;;;;2.13;1.93;;;17.90;80.00;;;;;;5046292;28;20231;-89
2021/10/05 11:04:21;;;;;;;2.07;1.93;;;17.40;78.30;;;;;;5050584;28;20203;-90
2021/10/05 11:07:06;;;;;;;;;;;;;;;;;;;;;
2021/10/05 11:09:34;;;;;;;2.10;1.90;;;17.40;77.60;;;;;;5062844;28;20290;-89
2021/10/05 11:12:08;;;;;;;2.53;1.70;;;18.30;77.00;;;;;;5056793;28;20221;-90
2021/10/05 11:14:42;;;;;;;2.03;1.70;;;18.90;71.80;;;;;;5064349;28;20203;-89
2021/10/05 11:17:09;;;;;;;2.40;1.92;;;18.70;76.90;;;;;;5042242;28;20194;-88
2021/10/05 11:19:44;;;;;;;2.15;1.98;;;18.60;74.90;;;;;;5045747;28;20213;-90
2021/10/05 11:22:13;;;;;;;1.87;1.77;;;18.90;75.30;;;;;;5046083;28;20205;-90
2021/10/05 11:24:40;;;;;;;1.83;1.73;;;18.40;71.80;;;;;;5031953;28;20197;-89
2021/10/05 11:27:25;;;;;;;2.30;2.10;;;18.30;74.30;;;;;;5048837;28;20568;-90
2021/10/05 11:29:58;;;;;;;1.90;1.70;;;18.60;74.30;;;;;;5043855;28;20193;-90
2021/10/05 11:32:23;;;;;;;2.00;1.90;;;18.70;73.80;;;;;;5062486;28;20214;-90
2021/10/05 11:34:51;;;;;;;2.35;1.80;;;18.90;73.70;;;;;;5048988;28;20200;-89
2021/10/05 11:37:20;;;;;;;1.73;1.63;;;19.50;69.80;;;;;;5035346;28;20196;-90
2021/10/05 11:39:53;;;;;;;1.80;1.70;;;19.20;71.30;;;;;;5047762;28;20294;-90
2021/10/05 11:42:40;;;;;;;1.75;1.65;;;18.90;69.60;;;;;;5052114;28;20256;-89
2021/10/05 11:45:08;;;;;;;1.70;1.60;;;18.40;74.30;;;;;;5052254;28;20185;-89
2021/10/05 11:47:37;;;;;;;2.05;1.85;;;18.30;74.40;;;;;;5037084;28;20205;-89
2021/10/05 11:50:08;;;;;;;4.80;1.90;;;18.20;76.60;;;;;;5069391;28;20210;-90
2021/10/05 11:52:37;;;;;;;1.87;1.53;;;17.90;77.20;;;;;;5070789;28;20225;-90
2021/10/05 11:55:03;;;;;;;1.83;1.73;;;17.80;77.30;;;;;;5067750;28;20223;-91
2021/10/05 11:57:34;;;;;;;1.83;1.73;;;17.50;76.30;;;;;;5055756;28;20204;-88
2021/10/05 12:00:07;;;;;;;1.93;1.80;;;17.40;77.90;;;;;;5036718;28;20227;-90
2021/10/05 12:02:37;;;;;;;1.77;1.63;;;17.60;77.90;;;;;;5075153;28;20751;-90
2021/10/05 12:05:06;;;;;;;1.60;1.50;;;17.60;75.30;;;;;;5052130;28;20189;-90
2021/10/05 12:07:33;;;;;;;1.70;1.60;;;17.80;76.70;;;;;;5043389;28;20272;-90
2021/10/05 12:10:11;;;;;;;1.80;1.70;;;18.10;76.00;;;;;;5058313;28;20619;-90
2021/10/05 12:12:57;;;;;;;1.43;1.43;;;17.70;75.00;;;;;;5055163;28;20192;-90
2021/10/05 12:15:24;;;;;;;1.63;1.53;;;17.60;76.60;;;;;;5056170;28;20719;-90
2021/10/05 12:18:06;;;;;;;1.67;1.53;;;17.80;74.60;;;;;;5056284;28;20190;-91
2021/10/05 12:20:32;;;;;;;1.67;1.43;;;18.40;73.40;;;;;;5039527;28;20221;-90
2021/10/05 12:23:05;;;;;;;1.50;1.50;;;18.80;70.20;;;;;;5057071;28;20195;-91
2021/10/05 12:25:36;;;;;;;1.80;1.70;;;19.30;71.30;;;;;;5039695;28;20295;-91
2021/10/05 12:28:06;;;;;;;1.42;1.42;;;19.30;69.30;;;;;;5038873;28;20195;-90
2021/10/05 12:30:32;;;;;;;1.60;1.50;;;19.90;68.00;;;;;;5063605;28;20234;-90
2021/10/05 12:33:08;;;;;;;1.30;1.30;;;19.90;66.70;;;;;;5053688;28;20675;-90
2021/10/05 12:35:36;;;;;;;1.50;1.50;;;20.00;65.60;;;;;;5052020;28;20219;-91
2021/10/05 12:38:11;;;;;;;1.40;1.40;;;19.40;65.90;;;;;;5055769;28;20761;-90
2021/10/05 12:40:47;;;;;;;1.60;1.50;;;19.60;65.50;;;;;;5057610;28;20213;-91
2021/10/05 12:43:16;;;;;;;3.20;1.50;;;20.10;65.40;;;;;;5056569;28;20184;-90
2021/10/05 12:45:50;;;;;;;1.80;1.70;;;20.60;62.40;;;;;;5063156;28;20683;-91
2021/10/05 12:48:16;;;;;;;1.70;1.60;;;20.30;61.50;;;;;;5062922;28;20252;-91
2021/10/05 12:50:45;;;;;;;1.60;1.50;;;20.60;62.60;;;;;;5066694;28;20223;-90
2021/10/05 12:53:11;;;;;;;1.40;1.40;;;20.10;62.60;;;;;;5047884;28;20196;-91
2021/10/05 12:55:37;;;;;;;1.80;1.70;;;20.30;62.50;;;;;;5052919;28;20600;-91
2021/10/05 12:58:05;;;;;;;1.52;1.42;;;20.80;61.70;;;;;;5057235;28;20188;-91
2021/10/05 13:00:33;;;;;;;1.45;1.45;;;21.00;58.30;;;;;;5058231;28;20212;-91
2021/10/05 13:03:00;;;;;;;1.42;1.42;;;21.30;56.50;;;;;;5060150;28;20241;-91
2021/10/05 13:05:26;;;;;;;1.40;1.40;;;21.10;55.80;;;;;;5069310;28;20188;-91
2021/10/05 13:07:52;;;;;;;1.40;1.40;;;21.10;56.30;;;;;;5054176;28;20192;-90